Weather at Blue Grass Airport

Public forecast

Using degrees Fahrenheit for public forecast. Weather courtesy of forecast.io.

Current aviation weather report (METAR) for Blue Grass Airport

2024/05/25 21:54 (retrieved 57 minutes ago)

KLEX 252154Z 25003KT 10SM FEW040 SCT050 27/20 A2986 RMK AO2 SLP101 T02720200

Aviation forecast (TAF) for Blue Grass Airport

2024/05/25 18:42 (retrieved 4 hours ago)

TAF KLEX 251739Z 2518/2618 25007KT P6SM BKN250 FM252100 27006KT P6SM BKN035 FM260100 VRB03KT P6SM VCTS SCT035CB FM260200 00000KT P6SM FEW035 FM261400 17008KT P6SM BKN050